Time;durP1;ratioP1;P1;durP2;ratioP2;P2;SDS_P1;SDS_P2;PMS_P1;PMS_P2;Temp;Humidity;BMP_temperature;BMP_pressure;BME280_temperature;BME280_humidity;BME280_pressure;Samples;Min_cycle;Max_cycle;Signal;HPM_P1;HPM_P2
2021/12/13 00:01:45;;;;;;;12.15;9.02;;;;;;;;;;143724;573;47020;-56
2021/12/13 00:04:27;;;;;;;14.80;10.07;;;;;;;;;;143724;601;47010;-56
2021/12/13 00:07:08;;;;;;;10.32;7.75;;;;;;;;;;143724;582;46018;-56
2021/12/13 00:09:41;;;;;;;15.48;10.60;;;;;;;;;;143728;650;46022;-56
2021/12/13 00:12:10;;;;;;;11.85;8.23;;;;;;;;;;143724;587;47021;-56
2021/12/13 00:14:50;;;;;;;13.52;11.05;;;;;;;;;;143724;588;47010;-57
2021/12/13 00:17:26;;;;;;;15.70;10.90;;;;;;;;;;143719;575;46018;-56
2021/12/13 00:20:12;;;;;;;11.10;7.90;;;;;;;;;;143727;566;46023;-56
2021/12/13 00:22:49;;;;;;;12.63;9.38;;;;;;;;;;143724;732;47020;-56
2021/12/13 00:25:22;;;;;;;16.60;9.98;;;;;;;;;;143723;664;47010;-57
2021/12/13 00:27:53;;;;;;;17.58;11.38;;;;;;;;;;143723;569;46018;-56
2021/12/13 00:31:08;;;;;;;18.50;11.52;;;;;;;;;;143727;624;47010;-57
2021/12/13 00:34:01;;;;;;;12.80;9.73;;;;;;;;;;143725;658;47021;-57
2021/12/13 00:36:53;;;;;;;12.93;9.23;;;;;;;;;;143724;620;47010;-56
2021/12/13 00:39:51;;;;;;;15.93;12.50;;;;;;;;;;143725;649;46018;-56
2021/12/13 00:42:19;;;;;;;13.90;11.30;;;;;;;;;;143722;614;46022;-57
2021/12/13 00:44:49;;;;;;;17.02;12.40;;;;;;;;;;143719;692;47018;-56
2021/12/13 00:47:31;;;;;;;22.55;16.00;;;;;;;;;;143723;586;48010;-57
2021/12/13 00:50:23;;;;;;;22.35;16.60;;;;;;;;;;143719;581;46018;-57
2021/12/13 00:52:51;;;;;;;19.33;13.05;;;;;;;;;;143727;635;46022;-58
2021/12/13 00:55:32;;;;;;;17.35;13.15;;;;;;;;;;143723;592;47020;-58
2021/12/13 00:58:12;;;;;;;14.38;11.35;;;;;;;;;;143723;715;47010;-59
2021/12/13 01:01:01;;;;;;;12.07;8.40;;;;;;;;;;143724;589;46024;-59
2021/12/13 01:03:38;;;;;;;11.30;8.07;;;;;;;;;;143727;741;46023;-59
2021/12/13 01:06:48;;;;;;;10.90;7.37;;;;;;;;;;143723;607;47020;-58
2021/12/13 01:10:18;;;;;;;11.25;7.62;;;;;;;;;;143725;565;47010;-58
2021/12/13 01:12:48;;;;;;;13.77;9.15;;;;;;;;;;143725;569;46018;-57
2021/12/13 01:15:31;;;;;;;17.10;9.77;;;;;;;;;;143727;583;46022;-57
2021/12/13 01:18:30;;;;;;;15.90;10.65;;;;;;;;;;143724;577;47018;-57
2021/12/13 01:21:27;;;;;;;14.15;11.10;;;;;;;;;;143724;590;47010;-56
2021/12/13 01:24:04;;;;;;;11.55;8.25;;;;;;;;;;143723;573;46018;-58
2021/12/13 01:26:38;;;;;;;10.73;7.15;;;;;;;;;;143727;585;46022;-58
2021/12/13 01:29:27;;;;;;;9.67;6.50;;;;;;;;;;143727;574;47020;-58
2021/12/13 01:32:04;;;;;;;9.05;6.37;;;;;;;;;;143727;584;46010;-58
2021/12/13 01:34:34;;;;;;;8.00;6.43;;;;;;;;;;143723;564;46018;-59
2021/12/13 01:37:16;;;;;;;10.00;7.78;;;;;;;;;;143723;569;46022;-57
2021/12/13 01:39:51;;;;;;;10.25;8.00;;;;;;;;;;143717;674;47019;-58
2021/12/13 01:42:21;;;;;;;;;;;;;;;;;;143728;978;47010;-58
2021/12/13 01:44:52;;;;;;;9.65;7.22;;;;;;;;;;143731;593;46018;-56
2021/12/13 01:47:34;;;;;;;8.00;6.80;;;;;;;;;;143728;595;46023;-57
2021/12/13 01:50:41;;;;;;;9.70;6.70;;;;;;;;;;143725;583;47020;-58
2021/12/13 01:53:08;;;;;;;10.77;7.50;;;;;;;;;;143724;569;47010;-57
2021/12/13 01:55:40;;;;;;;11.60;7.28;;;;;;;;;;143724;564;46019;-59
2021/12/13 02:01:14;;;;;;;11.63;8.18;;;;;;;;;;143726;653;45915;-59
2021/12/13 02:04:02;;;;;;;7.87;6.37;;;;;;;;;;143721;576;49010;-56
2021/12/13 02:06:43;;;;;;;7.43;6.05;;;;;;;;;;143724;672;46018;-58
2021/12/13 02:09:19;;;;;;;8.10;6.32;;;;;;;;;;143730;602;46023;-56
2021/12/13 02:11:50;;;;;;;10.95;6.93;;;;;;;;;;143724;580;47020;-57
2021/12/13 02:14:27;;;;;;;8.18;5.65;;;;;;;;;;143724;626;47010;-58
2021/12/13 02:17:13;;;;;;;9.15;6.90;;;;;;;;;;143727;576;46019;-58
2021/12/13 02:20:00;;;;;;;9.82;7.25;;;;;;;;;;143729;565;46022;-57
2021/12/13 02:22:47;;;;;;;9.38;6.87;;;;;;;;;;143725;602;47019;-58
2021/12/13 02:25:28;;;;;;;8.60;6.28;;;;;;;;;;143725;577;47010;-57
2021/12/13 02:28:07;;;;;;;11.43;6.37;;;;;;;;;;143723;622;46018;-56
2021/12/13 02:30:42;;;;;;;10.38;7.20;;;;;;;;;;143726;564;47013;-58
2021/12/13 02:33:12;;;;;;;8.87;6.93;;;;;;;;;;143717;591;47021;-56
2021/12/13 02:35:43;;;;;;;12.57;7.53;;;;;;;;;;143725;580;47010;-57
2021/12/13 02:38:12;;;;;;;8.93;7.12;;;;;;;;;;143722;604;46018;-56
2021/12/13 02:40:40;;;;;;;10.10;8.02;;;;;;;;;;143729;601;46023;-56
2021/12/13 02:43:10;;;;;;;11.07;8.52;;;;;;;;;;143718;608;47020;-58
2021/12/13 02:45:45;;;;;;;11.82;8.73;;;;;;;;;;143724;581;47022;-58
2021/12/13 02:48:29;;;;;;;16.77;9.57;;;;;;;;;;143724;591;46018;-58
2021/12/13 02:51:06;;;;;;;10.77;7.55;;;;;;;;;;143729;569;47012;-56
2021/12/13 02:53:59;;;;;;;14.68;9.32;;;;;;;;;;143724;587;47019;-57
2021/12/13 02:56:30;;;;;;;12.52;9.05;;;;;;;;;;143725;569;47010;-57
2021/12/13 02:59:03;;;;;;;11.77;8.93;;;;;;;;;;143718;563;46018;-56
2021/12/13 03:02:04;;;;;;;14.82;11.02;;;;;;;;;;143728;637;46023;-57
2021/12/13 03:04:32;;;;;;;17.85;10.88;;;;;;;;;;143726;566;47050;-57
2021/12/13 03:07:10;;;;;;;13.50;9.60;;;;;;;;;;143725;603;47010;-57
2021/12/13 03:09:39;;;;;;;10.15;7.32;;;;;;;;;;143727;620;46019;-57
2021/12/13 03:12:10;;;;;;;12.00;8.18;;;;;;;;;;143728;577;46022;-57
2021/12/13 03:14:41;;;;;;;10.15;8.00;;;;;;;;;;143725;642;47019;-58
2021/12/13 03:17:16;;;;;;;13.07;8.50;;;;;;;;;;143724;625;47011;-56
2021/12/13 03:20:19;;;;;;;10.18;7.22;;;;;;;;;;143724;569;46018;-58
2021/12/13 03:23:23;;;;;;;9.30;6.57;;;;;;;;;;143729;609;46022;-56
2021/12/13 03:26:26;;;;;;;14.13;9.32;;;;;;;;;;143722;623;47018;-58
2021/12/13 03:29:25;;;;;;;14.02;6.15;;;;;;;;;;143725;611;47010;-58
2021/12/13 03:31:56;;;;;;;7.97;6.32;;;;;;;;;;143724;580;46021;-56
2021/12/13 03:34:33;;;;;;;7.53;4.80;;;;;;;;;;143727;642;46022;-56
2021/12/13 03:37:13;;;;;;;5.90;4.15;;;;;;;;;;143721;568;47020;-57
2021/12/13 03:39:58;;;;;;;5.30;3.47;;;;;;;;;;143720;642;47010;-56
2021/12/13 03:42:34;;;;;;;6.22;3.80;;;;;;;;;;143724;619;46018;-57
2021/12/13 03:45:08;;;;;;;8.68;4.55;;;;;;;;;;143728;569;46022;-57
2021/12/13 03:47:39;;;;;;;4.60;3.33;;;;;;;;;;143725;573;47018;-57
2021/12/13 03:50:17;;;;;;;2.62;2.42;;;;;;;;;;143724;612;47010;-57
2021/12/13 03:52:47;;;;;;;4.37;3.12;;;;;;;;;;143721;576;46018;-55
2021/12/13 03:55:17;;;;;;;4.78;3.00;;;;;;;;;;143728;571;46023;-55
2021/12/13 03:57:53;;;;;;;2.87;2.40;;;;;;;;;;143724;574;47020;-58
2021/12/13 04:00:24;;;;;;;6.03;3.67;;;;;;;;;;143725;564;47011;-56
2021/12/13 04:02:55;;;;;;;2.00;1.80;;;;;;;;;;143723;589;46018;-56
2021/12/13 04:05:24;;;;;;;1.42;1.27;;;;;;;;;;143728;604;46022;-56
2021/12/13 04:07:55;;;;;;;1.65;1.55;;;;;;;;;;143724;624;47020;-55
2021/12/13 04:10:46;;;;;;;2.00;1.77;;;;;;;;;;143725;626;47010;-56
2021/12/13 04:13:16;;;;;;;1.00;0.85;;;;;;;;;;143725;634;46018;-56
2021/12/13 04:16:18;;;;;;;1.23;1.10;;;;;;;;;;143728;575;46023;-56
2021/12/13 04:19:21;;;;;;;3.15;1.08;;;;;;;;;;143724;569;47018;-57
2021/12/13 04:22:03;;;;;;;1.20;1.10;;;;;;;;;;143724;570;47010;-55
2021/12/13 04:24:38;;;;;;;1.70;1.00;;;;;;;;;;143724;575;46019;-57
2021/12/13 04:27:09;;;;;;;1.23;1.05;;;;;;;;;;143727;583;46022;-57
2021/12/13 04:29:39;;;;;;;0.88;0.88;;;;;;;;;;143726;674;47019;-56
2021/12/13 04:32:35;;;;;;;1.10;1.00;;;;;;;;;;143725;629;47010;-57
2021/12/13 04:35:08;;;;;;;1.45;1.30;;;;;;;;;;143725;585;46018;-57
2021/12/13 04:37:41;;;;;;;3.10;1.12;;;;;;;;;;143728;632;46022;-56
2021/12/13 04:40:24;;;;;;;1.55;1.23;;;;;;;;;;143725;621;47021;-57
2021/12/13 04:43:14;;;;;;;1.87;1.45;;;;;;;;;;143723;648;47010;-56
2021/12/13 04:45:44;;;;;;;2.55;1.50;;;;;;;;;;143725;620;46019;-56
2021/12/13 04:48:19;;;;;;;4.70;1.95;;;;;;;;;;143721;652;47010;-55
2021/12/13 04:50:55;;;;;;;3.00;1.90;;;;;;;;;;143725;587;47020;-55
2021/12/13 04:53:25;;;;;;;4.65;2.40;;;;;;;;;;143723;570;47011;-56
2021/12/13 04:55:54;;;;;;;2.78;1.90;;;;;;;;;;143723;579;46018;-58
2021/12/13 04:58:21;;;;;;;2.78;1.95;;;;;;;;;;143728;613;46022;-57
2021/12/13 05:00:55;;;;;;;2.15;1.95;;;;;;;;;;143725;612;47021;-55
2021/12/13 05:03:29;;;;;;;2.55;2.03;;;;;;;;;;143728;578;46022;-57
2021/12/13 05:06:14;;;;;;;4.05;2.67;;;;;;;;;;143726;623;46018;-57
2021/12/13 05:08:44;;;;;;;2.30;1.77;;;;;;;;;;143728;600;46023;-55
2021/12/13 05:11:12;;;;;;;3.03;2.60;;;;;;;;;;143723;580;47020;-58
2021/12/13 05:13:52;;;;;;;1.67;1.58;;;;;;;;;;143725;609;47011;-57
2021/12/13 05:16:27;;;;;;;2.55;2.03;;;;;;;;;;143724;629;46019;-56
2021/12/13 05:18:57;;;;;;;4.70;1.62;;;;;;;;;;143727;570;47012;-57
2021/12/13 05:21:38;;;;;;;2.70;2.03;;;;;;;;;;143725;623;47021;-57
2021/12/13 05:24:11;;;;;;;2.53;1.73;;;;;;;;;;143725;644;47010;-57
2021/12/13 05:26:56;;;;;;;2.42;2.10;;;;;;;;;;143724;641;46018;-55
2021/12/13 05:29:41;;;;;;;2.15;1.70;;;;;;;;;;143729;644;46022;-57
2021/12/13 05:32:28;;;;;;;2.70;2.50;;;;;;;;;;143725;575;47021;-58
2021/12/13 05:35:20;;;;;;;2.60;2.03;;;;;;;;;;143723;607;47010;-57
2021/12/13 05:37:51;;;;;;;1.85;1.33;;;;;;;;;;143724;614;46021;-56
2021/12/13 05:40:26;;;;;;;2.47;2.28;;;;;;;;;;143727;600;46022;-55
2021/12/13 05:43:00;;;;;;;1.60;1.33;;;;;;;;;;143725;608;47045;-55
2021/12/13 05:45:37;;;;;;;2.53;1.77;;;;;;;;;;143724;619;47011;-57
2021/12/13 05:48:36;;;;;;;25.33;15.45;;;;;;;;;;143725;620;46018;-55
2021/12/13 05:51:28;;;;;;;19.48;13.07;;;;;;;;;;143727;564;47022;-56
2021/12/13 05:54:07;;;;;;;9.70;6.43;;;;;;;;;;143725;604;47018;-57
2021/12/13 05:56:58;;;;;;;5.62;3.40;;;;;;;;;;143719;602;47010;-56
2021/12/13 05:59:33;;;;;;;14.90;10.02;;;;;;;;;;143726;565;46018;-56
2021/12/13 06:02:11;;;;;;;16.05;11.80;;;;;;;;;;143730;596;46023;-57
2021/12/13 06:04:59;;;;;;;10.50;6.93;;;;;;;;;;143719;578;47020;-56
2021/12/13 06:07:36;;;;;;;9.38;6.68;;;;;;;;;;143724;569;47010;-56
2021/12/13 06:10:15;;;;;;;9.60;6.37;;;;;;;;;;143726;569;46018;-56
2021/12/13 06:12:57;;;;;;;17.30;6.12;;;;;;;;;;143729;659;46022;-57
2021/12/13 06:15:34;;;;;;;20.17;9.65;;;;;;;;;;143727;581;47019;-57
2021/12/13 06:18:31;;;;;;;12.45;7.97;;;;;;;;;;143727;574;47010;-57
2021/12/13 06:21:32;;;;;;;12.05;6.80;;;;;;;;;;143727;630;46018;-57
2021/12/13 06:24:00;;;;;;;8.80;5.65;;;;;;;;;;143727;632;46023;-58
2021/12/13 06:26:30;;;;;;;10.05;5.90;;;;;;;;;;143727;637;47018;-57
2021/12/13 06:29:00;;;;;;;7.95;5.25;;;;;;;;;;143727;565;47010;-56
2021/12/13 06:31:40;;;;;;;8.75;5.90;;;;;;;;;;143724;569;46019;-57
2021/12/13 06:34:11;;;;;;;7.00;5.85;;;;;;;;;;143730;565;46022;-57
2021/12/13 06:36:45;;;;;;;8.65;6.37;;;;;;;;;;143726;654;47019;-58
2021/12/13 06:39:16;;;;;;;8.27;6.75;;;;;;;;;;143727;571;47010;-56
2021/12/13 06:41:52;;;;;;;6.30;5.12;;;;;;;;;;143727;675;46018;-56
2021/12/13 06:44:35;;;;;;;5.28;4.28;;;;;;;;;;143730;655;46022;-56
2021/12/13 06:47:19;;;;;;;6.72;4.80;;;;;;;;;;143724;594;48018;-56
2021/12/13 06:49:58;;;;;;;5.60;4.25;;;;;;;;;;143727;595;47010;-56
2021/12/13 06:52:36;;;;;;;6.32;4.15;;;;;;;;;;143727;595;46019;-57
2021/12/13 06:55:11;;;;;;;6.97;4.62;;;;;;;;;;143729;581;46022;-58
2021/12/13 06:57:46;;;;;;;4.97;4.00;;;;;;;;;;143722;654;47020;-57
2021/12/13 07:00:38;;;;;;;4.45;3.72;;;;;;;;;;143726;615;47010;-56
2021/12/13 07:03:11;;;;;;;4.60;3.75;;;;;;;;;;143727;594;46018;-57
2021/12/13 07:05:45;;;;;;;5.90;3.95;;;;;;;;;;143729;575;46022;-57
2021/12/13 07:08:36;;;;;;;5.03;3.35;;;;;;;;;;143727;570;47018;-56
2021/12/13 07:11:17;;;;;;;4.37;3.45;;;;;;;;;;143727;624;47010;-57
2021/12/13 07:14:13;;;;;;;13.32;7.93;;;;;;;;;;143724;599;46018;-56
2021/12/13 07:16:43;;;;;;;7.53;3.85;;;;;;;;;;143729;576;46022;-57
2021/12/13 07:19:22;;;;;;;9.70;6.45;;;;;;;;;;143724;627;48020;-56
2021/12/13 07:22:04;;;;;;;3.70;3.30;;;;;;;;;;143726;594;47010;-56
2021/12/13 07:24:43;;;;;;;4.68;3.83;;;;;;;;;;143726;632;46018;-56
2021/12/13 07:27:34;;;;;;;4.85;4.12;;;;;;;;;;143729;577;46022;-57
2021/12/13 07:30:16;;;;;;;5.07;4.00;;;;;;;;;;143727;608;47023;-57
2021/12/13 07:32:54;;;;;;;6.18;5.18;;;;;;;;;;143726;573;47010;-58
2021/12/13 07:35:41;;;;;;;6.85;5.03;;;;;;;;;;143725;574;46018;-56
2021/12/13 07:38:45;;;;;;;6.70;5.28;;;;;;;;;;143729;609;46023;-56
2021/12/13 07:41:12;;;;;;;8.68;6.53;;;;;;;;;;143726;580;47022;-55
2021/12/13 07:43:45;;;;;;;9.68;7.25;;;;;;;;;;143727;642;47010;-57
2021/12/13 07:46:27;;;;;;;7.97;6.43;;;;;;;;;;143724;577;46018;-56
2021/12/13 07:49:11;;;;;;;9.18;5.95;;;;;;;;;;143731;603;46022;-58
2021/12/13 07:51:47;;;;;;;8.38;6.85;;;;;;;;;;143722;589;47019;-55
2021/12/13 07:54:17;;;;;;;10.23;7.15;;;;;;;;;;143727;606;47010;-56
2021/12/13 07:56:49;;;;;;;9.40;6.65;;;;;;;;;;143727;603;46018;-56
2021/12/13 07:59:36;;;;;;;7.97;6.95;;;;;;;;;;143730;611;46023;-56
2021/12/13 08:02:39;;;;;;;7.85;6.97;;;;;;;;;;143726;593;47020;-55
2021/12/13 08:05:13;;;;;;;8.50;7.25;;;;;;;;;;143726;564;47010;-56
2021/12/13 08:08:00;;;;;;;8.33;7.00;;;;;;;;;;143726;676;46019;-57
2021/12/13 08:10:40;;;;;;;7.53;6.75;;;;;;;;;;143729;627;46024;-57
2021/12/13 08:13:29;;;;;;;8.63;6.25;;;;;;;;;;143726;610;47019;-56
2021/12/13 08:16:05;;;;;;;5.82;5.12;;;;;;;;;;143726;632;47010;-56
2021/12/13 08:18:40;;;;;;;6.95;5.32;;;;;;;;;;143724;625;46018;-57
2021/12/13 08:21:26;;;;;;;6.55;4.82;;;;;;;;;;143730;616;46022;-56
2021/12/13 08:23:56;;;;;;;6.57;4.78;;;;;;;;;;143726;630;47018;-55
2021/12/13 08:26:41;;;;;;;6.45;4.40;;;;;;;;;;143726;569;47010;-56
2021/12/13 08:29:16;;;;;;;6.17;4.17;;;;;;;;;;143726;576;46019;-56
2021/12/13 08:31:46;;;;;;;6.20;4.43;;;;;;;;;;143730;632;46022;-56
2021/12/13 08:34:23;;;;;;;7.00;5.00;;;;;;;;;;143725;607;47018;-55
2021/12/13 08:36:52;;;;;;;5.62;4.22;;;;;;;;;;143726;644;47010;-55
2021/12/13 08:39:31;;;;;;;4.97;3.80;;;;;;;;;;143727;622;46018;-57
2021/12/13 08:42:13;;;;;;;6.18;4.28;;;;;;;;;;143732;622;46022;-56
2021/12/13 08:44:52;;;;;;;5.57;4.20;;;;;;;;;;143724;580;47021;-57
2021/12/13 08:47:25;;;;;;;7.05;4.18;;;;;;;;;;143725;656;47010;-56
2021/12/13 08:49:59;;;;;;;31.12;19.87;;;;;;;;;;143727;594;46018;-55
2021/12/13 08:52:37;;;;;;;16.05;10.15;;;;;;;;;;143729;585;46023;-57
2021/12/13 08:55:21;;;;;;;7.93;5.65;;;;;;;;;;143727;625;47020;-57
2021/12/13 08:58:11;;;;;;;19.45;13.13;;;;;;;;;;143725;565;46023;-62
2021/12/13 09:01:08;;;;;;;7.28;4.05;;;;;;;;;;143725;592;47018;-63
2021/12/13 09:03:42;;;;;;;4.82;3.70;;;;;;;;;;143728;640;47010;-63
2021/12/13 09:06:29;;;;;;;4.13;3.73;;;;;;;;;;143726;650;47019;-63
2021/12/13 09:09:20;;;;;;;4.20;3.70;;;;;;;;;;143725;565;47010;-61
2021/12/13 09:12:03;;;;;;;6.15;3.90;;;;;;;;;;143726;572;46018;-61
2021/12/13 09:14:51;;;;;;;6.30;3.90;;;;;;;;;;143730;585;46023;-61
2021/12/13 09:17:47;;;;;;;7.15;3.85;;;;;;;;;;143728;601;47018;-61
2021/12/13 09:20:43;;;;;;;5.70;3.70;;;;;;;;;;143726;646;47010;-62
2021/12/13 09:23:41;;;;;;;4.65;3.65;;;;;;;;;;143727;590;46018;-60
2021/12/13 09:26:14;;;;;;;4.07;3.37;;;;;;;;;;143728;575;46022;-60
2021/12/13 09:28:52;;;;;;;7.28;3.28;;;;;;;;;;143727;567;47020;-61
2021/12/13 09:31:27;;;;;;;6.47;4.50;;;;;;;;;;143725;592;47010;-62
2021/12/13 09:34:01;;;;;;;4.50;3.58;;;;;;;;;;143725;566;46018;-63
2021/12/13 09:36:32;;;;;;;4.70;3.40;;;;;;;;;;143729;601;46023;-61
2021/12/13 09:39:06;;;;;;;5.30;3.85;;;;;;;;;;143724;595;47020;-62
2021/12/13 09:41:53;;;;;;;5.25;3.35;;;;;;;;;;143727;564;47013;-62
2021/12/13 09:44:56;;;;;;;8.52;3.97;;;;;;;;;;143726;654;46019;-62
2021/12/13 09:47:33;;;;;;;6.75;3.97;;;;;;;;;;143729;638;47022;-63
2021/12/13 09:50:17;;;;;;;7.22;3.72;;;;;;;;;;143726;616;47037;-63
2021/12/13 09:53:01;;;;;;;7.00;3.53;;;;;;;;;;143728;589;47010;-64
2021/12/13 09:55:37;;;;;;;6.55;4.18;;;;;;;;;;143726;676;46018;-62
2021/12/13 09:58:13;;;;;;;5.60;4.05;;;;;;;;;;143728;741;47012;-63
2021/12/13 10:01:12;;;;;;;9.25;4.05;;;;;;;;;;143726;566;47018;-62
2021/12/13 10:03:53;;;;;;;6.07;4.28;;;;;;;;;;143726;571;47022;-62
2021/12/13 10:06:27;;;;;;;15.95;5.97;;;;;;;;;;143725;668;46019;-63
2021/12/13 10:09:24;;;;;;;8.45;4.40;;;;;;;;;;143729;564;46022;-63
2021/12/13 10:12:01;;;;;;;9.23;4.37;;;;;;;;;;143726;644;47041;-63
2021/12/13 10:14:36;;;;;;;6.07;3.97;;;;;;;;;;143726;586;47010;-62
2021/12/13 10:17:06;;;;;;;7.75;4.72;;;;;;;;;;143721;588;46018;-63
2021/12/13 10:19:38;;;;;;;21.17;11.10;;;;;;;;;;143731;656;46022;-61
2021/12/13 10:22:07;;;;;;;11.60;7.97;;;;;;;;;;143728;647;47021;-60
2021/12/13 10:24:39;;;;;;;9.18;6.00;;;;;;;;;;143726;595;47010;-61
2021/12/13 10:27:09;;;;;;;9.05;5.37;;;;;;;;;;143727;573;46018;-62
2021/12/13 10:29:37;;;;;;;7.25;5.00;;;;;;;;;;143729;593;46023;-61
2021/12/13 10:32:12;;;;;;;10.60;6.05;;;;;;;;;;143721;567;47018;-62
2021/12/13 10:34:45;;;;;;;9.23;5.18;;;;;;;;;;143723;669;47010;-61
2021/12/13 10:37:25;;;;;;;12.00;7.50;;;;;;;;;;143723;642;46018;-62
2021/12/13 10:40:28;;;;;;;10.15;5.87;;;;;;;;;;143727;692;47022;-63
2021/12/13 10:43:00;;;;;;;10.32;6.68;;;;;;;;;;143725;751;47019;-61
2021/12/13 10:45:31;;;;;;;10.30;5.53;;;;;;;;;;143724;614;47010;-62
2021/12/13 10:48:03;;;;;;;7.80;5.10;;;;;;;;;;143723;579;46018;-62
2021/12/13 10:50:52;;;;;;;10.10;5.80;;;;;;;;;;143728;580;46023;-62
2021/12/13 10:53:22;;;;;;;7.87;5.55;;;;;;;;;;143725;569;47018;-62
2021/12/13 10:56:01;;;;;;;10.88;5.82;;;;;;;;;;143723;616;47011;-62
2021/12/13 10:58:33;;;;;;;5.82;4.40;;;;;;;;;;143719;607;46019;-63
2021/12/13 11:01:19;;;;;;;6.62;4.60;;;;;;;;;;143727;577;46022;-64
2021/12/13 11:03:48;;;;;;;6.50;4.15;;;;;;;;;;143725;632;47036;-64
2021/12/13 11:06:17;;;;;;;8.50;4.53;;;;;;;;;;143722;566;47010;-64
2021/12/13 11:08:44;;;;;;;8.13;4.50;;;;;;;;;;143724;576;47010;-64
2021/12/13 11:11:35;;;;;;;8.90;4.87;;;;;;;;;;143727;579;47012;-65
2021/12/13 11:14:06;;;;;;;8.80;4.50;;;;;;;;;;143726;590;47018;-62
2021/12/13 11:16:38;;;;;;;7.12;4.95;;;;;;;;;;143722;563;47010;-61
2021/12/13 11:19:07;;;;;;;37.30;21.83;;;;;;;;;;143723;582;46018;-63
2021/12/13 11:21:36;;;;;;;27.52;15.95;;;;;;;;;;143727;645;47012;-63
2021/12/13 11:24:08;;;;;;;21.87;14.45;;;;;;;;;;143717;607;47020;-61
2021/12/13 11:26:40;;;;;;;12.00;8.18;;;;;;;;;;143725;618;47010;-63
2021/12/13 11:29:10;;;;;;;17.12;8.30;;;;;;;;;;143723;580;46019;-62
2021/12/13 11:32:31;;;;;;;8.38;5.45;;;;;;;;;;143728;622;46022;-63
2021/12/13 11:35:53;;;;;;;11.57;7.10;;;;;;;;;;143724;664;47019;-63
2021/12/13 11:38:56;;;;;;;8.70;5.85;;;;;;;;;;143725;610;47010;-61
2021/12/13 11:41:58;;;;;;;5.68;4.40;;;;;;;;;;143722;566;46018;-62
2021/12/13 11:45:05;;;;;;;7.00;5.28;;;;;;;;;;143727;685;46023;-63
2021/12/13 11:48:07;;;;;;;12.80;5.93;;;;;;;;;;143725;593;47020;-62
2021/12/13 11:51:09;;;;;;;7.68;5.35;;;;;;;;;;143725;659;47009;-62
2021/12/13 11:54:16;;;;;;;7.07;5.70;;;;;;;;;;143723;583;46020;-62
2021/12/13 11:57:32;;;;;;;7.05;5.20;;;;;;;;;;143726;619;46022;-62
2021/12/13 12:00:50;;;;;;;9.27;5.57;;;;;;;;;;143726;626;47018;-63
2021/12/13 12:03:50;;;;;;;7.55;5.28;;;;;;;;;;143722;580;47011;-64
2021/12/13 12:07:13;;;;;;;7.45;4.70;;;;;;;;;;143723;622;46019;-64
2021/12/13 12:10:19;;;;;;;6.97;5.28;;;;;;;;;;143728;599;46022;-62
2021/12/13 12:13:30;;;;;;;9.93;7.12;;;;;;;;;;143724;565;47019;-63
2021/12/13 12:16:02;;;;;;;25.98;15.15;;;;;;;;;;143722;574;47010;-63
2021/12/13 12:18:32;;;;;;;28.58;19.90;;;;;;;;;;143724;630;46018;-63
2021/12/13 12:21:35;;;;;;;17.83;11.75;;;;;;;;;;143728;585;46023;-64
2021/12/13 12:24:13;;;;;;;12.10;9.35;;;;;;;;;;143717;600;47022;-61
2021/12/13 12:26:45;;;;;;;13.40;6.95;;;;;;;;;;143723;565;47010;-61
2021/12/13 12:29:21;;;;;;;12.65;7.78;;;;;;;;;;143721;689;46018;-63
2021/12/13 12:31:57;;;;;;;8.57;5.97;;;;;;;;;;143728;567;46022;-62
2021/12/13 12:34:24;;;;;;;6.60;4.60;;;;;;;;;;143725;588;47019;-63
2021/12/13 12:37:23;;;;;;;7.75;5.00;;;;;;;;;;143723;591;47010;-64
2021/12/13 12:40:35;;;;;;;8.68;6.95;;;;;;;;;;143723;599;46020;-64
2021/12/13 12:43:09;;;;;;;8.70;5.15;;;;;;;;;;143726;605;46025;-63
2021/12/13 12:45:46;;;;;;;8.10;4.93;;;;;;;;;;143725;579;47020;-63
2021/12/13 12:48:35;;;;;;;9.27;5.53;;;;;;;;;;143725;598;47010;-63
2021/12/13 12:51:30;;;;;;;7.18;5.30;;;;;;;;;;143723;617;46020;-62
2021/12/13 12:54:05;;;;;;;9.30;5.83;;;;;;;;;;143729;578;46022;-62
2021/12/13 12:56:57;;;;;;;;;;;;;;;;;;143729;983;47019;-61
2021/12/13 12:59:32;;;;;;;6.70;4.65;;;;;;;;;;143726;570;47010;-62
2021/12/13 13:02:08;;;;;;;7.80;4.75;;;;;;;;;;143724;577;46018;-61
2021/12/13 13:04:46;;;;;;;8.05;5.47;;;;;;;;;;143727;594;46023;-61
2021/12/13 13:07:30;;;;;;;7.72;4.90;;;;;;;;;;143720;622;47018;-61
2021/12/13 13:10:24;;;;;;;7.70;4.90;;;;;;;;;;143724;619;47011;-62
2021/12/13 13:12:55;;;;;;;7.85;5.22;;;;;;;;;;143725;663;46019;-62
2021/12/13 13:15:29;;;;;;;9.20;4.72;;;;;;;;;;143728;656;46022;-62
2021/12/13 13:18:03;;;;;;;6.78;5.22;;;;;;;;;;143723;629;47019;-62
2021/12/13 13:20:38;;;;;;;7.45;5.35;;;;;;;;;;143723;612;47010;-61
2021/12/13 13:23:06;;;;;;;9.32;5.25;;;;;;;;;;143723;600;46018;-62
2021/12/13 13:25:46;;;;;;;7.45;5.40;;;;;;;;;;143729;576;46022;-62
2021/12/13 13:28:28;;;;;;;11.00;6.05;;;;;;;;;;143725;584;47018;-61
2021/12/13 13:31:23;;;;;;;9.77;5.93;;;;;;;;;;143724;576;47010;-62
2021/12/13 13:34:11;;;;;;;58.28;39.08;;;;;;;;;;143724;605;46018;-63
2021/12/13 13:36:48;;;;;;;19.62;12.55;;;;;;;;;;143726;648;46022;-63
2021/12/13 13:39:30;;;;;;;12.73;7.37;;;;;;;;;;143725;565;47018;-61
2021/12/13 13:42:17;;;;;;;26.17;14.30;;;;;;;;;;143724;575;47021;-63
2021/12/13 13:45:03;;;;;;;19.08;12.77;;;;;;;;;;143720;564;46018;-61
2021/12/13 13:47:35;;;;;;;14.40;9.77;;;;;;;;;;143727;618;46022;-61
2021/12/13 13:50:29;;;;;;;20.25;12.93;;;;;;;;;;143724;596;47018;-63
2021/12/13 13:53:00;;;;;;;16.40;8.45;;;;;;;;;;143725;622;47010;-62
2021/12/13 13:55:47;;;;;;;24.15;12.85;;;;;;;;;;143725;580;46018;-62
2021/12/13 13:58:23;;;;;;;9.57;6.55;;;;;;;;;;143728;569;46023;-63
2021/12/13 14:01:00;;;;;;;;;;;;;;;;;;143730;980;47020;-61
2021/12/13 14:03:39;;;;;;;9.88;6.57;;;;;;;;;;143730;589;47010;-62
2021/12/13 14:06:08;;;;;;;7.87;5.15;;;;;;;;;;143724;676;46018;-62
2021/12/13 14:08:37;;;;;;;11.70;8.13;;;;;;;;;;143726;569;47012;-63
2021/12/13 14:11:10;;;;;;;8.80;6.37;;;;;;;;;;143722;590;47019;-63
2021/12/13 14:13:40;;;;;;;10.70;5.50;;;;;;;;;;143722;634;47010;-63
2021/12/13 14:16:21;;;;;;;8.43;5.62;;;;;;;;;;143723;577;46018;-61
2021/12/13 14:18:49;;;;;;;10.10;6.25;;;;;;;;;;143727;564;46022;-62
2021/12/13 14:21:21;;;;;;;11.65;6.55;;;;;;;;;;143726;569;47018;-62
2021/12/13 14:23:51;;;;;;;12.10;7.30;;;;;;;;;;143725;570;47010;-62
2021/12/13 14:26:24;;;;;;;11.45;6.70;;;;;;;;;;143723;595;46018;-61
2021/12/13 14:29:01;;;;;;;11.10;6.85;;;;;;;;;;143728;644;46022;-61
2021/12/13 14:31:43;;;;;;;12.30;8.85;;;;;;;;;;143724;577;47018;-62
2021/12/13 14:34:14;;;;;;;9.65;6.78;;;;;;;;;;143724;564;47010;-62
2021/12/13 14:36:50;;;;;;;10.35;6.65;;;;;;;;;;143721;581;46018;-62
2021/12/13 14:39:38;;;;;;;9.88;6.25;;;;;;;;;;143727;653;46022;-61
2021/12/13 14:42:16;;;;;;;8.90;5.30;;;;;;;;;;143724;648;47019;-61
2021/12/13 14:44:50;;;;;;;7.65;5.35;;;;;;;;;;143724;588;47010;-63
2021/12/13 14:47:46;;;;;;;7.23;5.33;;;;;;;;;;143725;591;46018;-63
2021/12/13 14:50:30;;;;;;;6.78;4.20;;;;;;;;;;143730;630;46012;-63
2021/12/13 14:53:07;;;;;;;9.25;4.90;;;;;;;;;;143724;563;47020;-63
2021/12/13 14:55:44;;;;;;;11.40;6.95;;;;;;;;;;143725;576;47019;-63
2021/12/13 14:58:15;;;;;;;12.45;6.25;;;;;;;;;;143723;570;46018;-63
2021/12/13 15:00:59;;;;;;;9.23;5.57;;;;;;;;;;143728;611;46022;-63
2021/12/13 15:03:27;;;;;;;8.77;5.60;;;;;;;;;;143722;665;46020;-63
2021/12/13 15:06:12;;;;;;;8.30;5.93;;;;;;;;;;143725;588;47010;-62
2021/12/13 15:08:42;;;;;;;5.82;4.50;;;;;;;;;;143723;563;46018;-63
2021/12/13 15:11:36;;;;;;;12.37;5.97;;;;;;;;;;143726;565;46023;-61
2021/12/13 15:14:08;;;;;;;7.78;5.57;;;;;;;;;;143724;607;47020;-62
2021/12/13 15:16:38;;;;;;;8.95;5.72;;;;;;;;;;143722;594;47010;-63
2021/12/13 15:19:14;;;;;;;7.37;5.03;;;;;;;;;;143724;566;46019;-61
2021/12/13 15:21:52;;;;;;;6.40;4.07;;;;;;;;;;143728;600;46022;-61
2021/12/13 15:24:21;;;;;;;6.53;4.20;;;;;;;;;;143724;570;47019;-62
2021/12/13 15:27:06;;;;;;;7.25;4.50;;;;;;;;;;143724;612;47011;-63
2021/12/13 15:29:34;;;;;;;;;;;;;;;;;;143727;984;46018;-62
2021/12/13 15:32:08;;;;;;;7.50;5.18;;;;;;;;;;143733;619;46022;-62
2021/12/13 15:34:47;;;;;;;9.13;5.10;;;;;;;;;;143725;609;47021;-63
2021/12/13 15:37:50;;;;;;;7.85;4.70;;;;;;;;;;143723;612;47010;-61
2021/12/13 15:40:25;;;;;;;6.20;4.50;;;;;;;;;;143724;573;46020;-61
2021/12/13 15:43:10;;;;;;;6.00;4.25;;;;;;;;;;143728;605;46022;-62
2021/12/13 15:45:44;;;;;;;6.85;5.03;;;;;;;;;;143724;593;47020;-61
2021/12/13 15:51:18;;;;;;;5.80;3.78;;;;;;;;;;143726;586;46012;-62
2021/12/13 15:53:50;;;;;;;7.20;4.53;;;;;;;;;;143727;576;46022;-63
2021/12/13 15:56:24;;;;;;;6.55;4.50;;;;;;;;;;143722;631;47019;-62
2021/12/13 15:58:55;;;;;;;9.40;4.90;;;;;;;;;;143724;665;47010;-61
2021/12/13 16:01:31;;;;;;;6.72;4.80;;;;;;;;;;143723;631;46018;-62
2021/12/13 16:04:06;;;;;;;6.75;4.85;;;;;;;;;;143728;604;46023;-63